createdAt,value
2024-01-04T00:00:01.616Z,43.90
2024-01-04T00:02:37.513Z,48.57
2024-01-04T00:05:09.090Z,49.47
2024-01-04T00:07:43.272Z,44.70
2024-01-04T00:10:15.549Z,48.43
2024-01-04T00:12:46.589Z,44.23
2024-01-04T00:15:16.770Z,44.83
2024-01-04T00:17:47.284Z,44.80
2024-01-04T00:20:18.788Z,41.47
2024-01-04T00:22:51.048Z,38.87
2024-01-04T00:25:21.191Z,38.93
2024-01-04T00:27:51.022Z,39.17
2024-01-04T00:30:21.429Z,35.17
2024-01-04T00:32:51.201Z,35.27
2024-01-04T00:35:21.062Z,35.87
2024-01-04T00:37:52.597Z,33.80
2024-01-04T00:40:23.215Z,36.07
2024-01-04T00:42:53.289Z,33.13
2024-01-04T00:45:23.156Z,30.87
2024-01-04T00:47:52.796Z,31.03
2024-01-04T00:50:22.876Z,31.50
2024-01-04T00:53:03.146Z,30.13
2024-01-04T00:55:36.248Z,29.23
2024-01-04T00:58:07.035Z,28.30
2024-01-04T01:00:36.906Z,28.23
2024-01-04T01:03:08.286Z,27.43
2024-01-04T01:05:39.208Z,27.00
2024-01-04T01:08:11.831Z,25.63
2024-01-04T01:10:41.751Z,24.67
2024-01-04T01:13:11.548Z,23.57
2024-01-04T01:15:41.784Z,24.13
2024-01-04T01:18:13.089Z,27.93
2024-01-04T01:20:44.041Z,27.27
2024-01-04T01:23:15.512Z,23.57
2024-01-04T01:25:45.936Z,20.23
2024-01-04T01:28:17.093Z,23.00
2024-01-04T01:30:48.639Z,19.90
2024-01-04T01:33:18.693Z,20.97
2024-01-04T01:35:48.775Z,20.60
2024-01-04T01:38:19.800Z,20.40
2024-01-04T01:40:50.946Z,18.40
2024-01-04T01:43:21.291Z,20.17
2024-01-04T01:45:51.022Z,19.80
2024-01-04T01:48:20.992Z,19.33
2024-01-04T01:50:51.249Z,18.67
2024-01-04T01:53:23.403Z,18.83
2024-01-04T01:55:53.709Z,18.37
2024-01-04T01:58:24.586Z,18.83
2024-01-04T02:00:56.412Z,17.20
2024-01-04T02:03:26.507Z,18.50
2024-01-04T02:05:56.754Z,18.37
2024-01-04T02:08:29.673Z,17.83
2024-01-04T02:11:01.304Z,18.47
2024-01-04T02:13:31.721Z,16.83
2024-01-04T02:16:02.320Z,17.43
2024-01-04T02:18:33.637Z,18.87
2024-01-04T02:21:04.246Z,17.70
2024-01-04T02:23:36.150Z,17.67
2024-01-04T02:26:06.096Z,17.43
2024-01-04T02:28:36.795Z,18.00
2024-01-04T02:31:06.384Z,17.77
2024-01-04T02:33:36.706Z,18.00
2024-01-04T02:36:08.132Z,18.43
2024-01-04T02:38:40.020Z,19.27
2024-01-04T02:41:10.910Z,19.20
2024-01-04T02:43:40.648Z,19.73
2024-01-04T02:46:10.749Z,19.53
2024-01-04T02:48:41.076Z,19.27
2024-01-04T02:51:11.690Z,19.63
2024-01-04T02:53:43.053Z,19.80
2024-01-04T02:56:13.075Z,19.23
2024-01-04T02:58:46.566Z,19.90
2024-01-04T03:01:22.290Z,20.07
2024-01-04T03:03:53.923Z,20.73
2024-01-04T03:06:25.637Z,20.10
2024-01-04T03:08:58.178Z,19.53
2024-01-04T03:11:28.741Z,20.53
2024-01-04T03:13:58.454Z,19.93
2024-01-04T03:16:28.378Z,21.03
2024-01-04T03:18:58.189Z,20.63
2024-01-04T03:21:28.206Z,21.70
2024-01-04T03:23:59.475Z,21.90
2024-01-04T03:26:29.578Z,22.43
2024-01-04T03:28:59.999Z,23.73
2024-01-04T03:31:29.713Z,24.30
2024-01-04T03:33:59.529Z,25.23
2024-01-04T03:36:29.218Z,26.00
2024-01-04T03:39:00.628Z,26.77
2024-01-04T03:41:30.493Z,25.87
2024-01-04T03:44:00.011Z,28.70
2024-01-04T03:46:29.603Z,28.37
2024-01-04T03:49:00.028Z,29.07
2024-01-04T03:51:29.746Z,28.40
2024-01-04T03:54:01.749Z,29.03
2024-01-04T03:56:32.430Z,28.03
2024-01-04T03:59:02.949Z,30.47
2024-01-04T04:01:32.860Z,30.50
2024-01-04T04:04:02.645Z,32.10
2024-01-04T04:06:33.752Z,32.30
2024-01-04T04:09:06.273Z,33.67
2024-01-04T04:11:37.750Z,33.60
2024-01-04T04:14:10.893Z,36.17
2024-01-04T04:16:43.590Z,38.70
2024-01-04T04:19:13.726Z,36.60
2024-01-04T04:21:43.907Z,38.83
2024-01-04T04:24:15.574Z,37.20
2024-01-04T04:26:45.897Z,39.23
2024-01-04T04:29:16.319Z,36.73
2024-01-04T04:31:46.737Z,36.37
2024-01-04T04:34:17.136Z,34.93
2024-01-04T04:36:46.737Z,33.77
2024-01-04T04:39:18.569Z,33.43
2024-01-04T04:41:48.580Z,34.50
2024-01-04T04:44:18.379Z,31.93
2024-01-04T04:46:47.938Z,31.60
2024-01-04T04:49:17.800Z,33.03
2024-01-04T04:51:50.801Z,34.07
2024-01-04T04:54:22.186Z,33.97
2024-01-04T04:56:52.268Z,32.70
2024-01-04T04:59:22.259Z,34.53
2024-01-04T05:01:51.858Z,33.70
2024-01-04T05:04:22.932Z,32.83
2024-01-04T05:06:53.066Z,32.93
2024-01-04T05:09:24.372Z,33.03
2024-01-04T05:11:55.373Z,33.87
2024-01-04T05:14:25.210Z,32.77
2024-01-04T05:16:56.398Z,32.23
2024-01-04T05:19:26.554Z,33.57
2024-01-04T05:21:56.556Z,32.37
2024-01-04T05:24:28.382Z,31.13
2024-01-04T05:26:58.416Z,32.00
2024-01-04T05:29:29.322Z,30.63
2024-01-04T05:31:59.353Z,32.63
2024-01-04T05:34:30.986Z,34.33
2024-01-04T05:37:01.169Z,31.83
2024-01-04T05:39:32.569Z,33.93
2024-01-04T05:42:02.713Z,33.90
2024-01-04T05:44:32.901Z,33.73
2024-01-04T05:47:02.619Z,32.93
2024-01-04T05:49:32.298Z,37.27
2024-01-04T05:52:02.446Z,34.83
2024-01-04T05:54:34.618Z,40.13
2024-01-04T05:57:04.450Z,37.30
2024-01-04T05:59:34.186Z,36.07
2024-01-04T06:02:03.632Z,37.60
2024-01-04T06:04:33.350Z,35.83
2024-01-04T06:07:03.452Z,34.37
2024-01-04T06:09:34.815Z,32.13
2024-01-04T06:12:04.967Z,34.77
2024-01-04T06:14:35.094Z,35.60
2024-01-04T06:17:05.372Z,37.40
2024-01-04T06:19:35.194Z,36.90
2024-01-04T06:22:04.891Z,37.57
2024-01-04T06:24:36.959Z,36.50
2024-01-04T06:27:07.147Z,37.27
2024-01-04T06:29:38.072Z,35.90
2024-01-04T06:32:09.517Z,36.57
2024-01-04T06:34:40.069Z,37.30
2024-01-04T06:37:11.519Z,37.30
2024-01-04T06:39:51.495Z,38.90
2024-01-04T06:42:23.413Z,37.73
2024-01-04T06:44:53.853Z,40.33
2024-01-04T06:47:23.878Z,39.17
2024-01-04T06:50:03.466Z,37.87
2024-01-04T06:52:40.939Z,41.03
2024-01-04T06:55:16.377Z,40.43
2024-01-04T06:57:46.297Z,43.77
2024-01-04T07:00:16.984Z,40.83
2024-01-04T07:02:47.515Z,40.63
2024-01-04T07:05:17.246Z,41.20
2024-01-04T07:07:47.174Z,41.53
2024-01-04T07:10:19.559Z,39.27
2024-01-04T07:12:50.496Z,40.30
2024-01-04T07:15:20.328Z,39.40
2024-01-04T07:17:50.464Z,39.80
2024-01-04T07:20:23.612Z,38.27
2024-01-04T07:22:55.057Z,39.43
2024-01-04T07:25:27.183Z,42.40
2024-01-04T07:27:57.042Z,39.50
2024-01-04T07:30:26.701Z,38.97
2024-01-04T07:32:56.913Z,40.73
2024-01-04T07:35:26.984Z,37.10
2024-01-04T07:37:56.935Z,39.97
2024-01-04T07:40:28.033Z,39.97
2024-01-04T07:42:57.576Z,41.53
2024-01-04T07:45:27.599Z,39.10
2024-01-04T07:47:57.440Z,40.03
2024-01-04T07:50:28.635Z,36.63
2024-01-04T07:52:58.432Z,41.10
2024-01-04T07:55:30.058Z,39.50
2024-01-04T07:57:59.713Z,40.60
2024-01-04T08:00:29.473Z,39.67
2024-01-04T08:02:59.249Z,45.13
2024-01-04T08:05:28.736Z,42.17
2024-01-04T08:07:58.635Z,41.27
2024-01-04T08:10:29.891Z,44.63
2024-01-04T08:13:01.133Z,45.80
2024-01-04T08:15:35.090Z,43.50
2024-01-04T08:18:07.528Z,45.07
2024-01-04T08:20:38.077Z,43.57
2024-01-04T08:23:08.178Z,44.60
2024-01-04T08:25:40.225Z,45.80
2024-01-04T08:28:11.375Z,44.23
2024-01-04T08:30:41.425Z,35.53
2024-01-04T08:33:11.848Z,32.53
2024-01-04T08:35:41.941Z,43.37
2024-01-04T08:38:12.241Z,33.17
2024-01-04T08:40:43.919Z,33.17
2024-01-04T08:43:16.786Z,34.77
2024-01-04T08:45:46.941Z,37.93
2024-01-04T08:48:17.710Z,40.93
2024-01-04T08:50:47.997Z,39.97
2024-01-04T08:53:22.172Z,43.73
2024-01-04T08:55:53.976Z,44.77
2024-01-04T08:58:23.546Z,45.70
2024-01-04T09:00:54.246Z,48.83
2024-01-04T09:03:24.561Z,53.03
2024-01-04T09:05:54.845Z,55.67
2024-01-04T09:08:25.235Z,52.27
2024-01-04T09:10:56.589Z,50.17
2024-01-04T09:13:27.032Z,50.73
2024-01-04T09:15:57.263Z,54.53
2024-01-04T09:18:27.618Z,47.47
2024-01-04T09:20:57.388Z,48.20
2024-01-04T09:23:26.907Z,50.17
2024-01-04T09:25:58.757Z,46.20
2024-01-04T09:28:29.578Z,46.30
2024-01-04T09:30:59.577Z,45.27
2024-01-04T09:33:30.153Z,44.13
2024-01-04T09:36:00.503Z,47.97
2024-01-04T09:38:30.584Z,46.43
2024-01-04T09:41:15.653Z,46.03
2024-01-04T09:43:46.063Z,44.50
2024-01-04T09:46:23.176Z,48.50
2024-01-04T09:48:59.919Z,47.60
2024-01-04T09:51:32.161Z,48.37
2024-01-04T09:54:02.432Z,55.70
2024-01-04T09:56:34.680Z,49.47
2024-01-04T09:59:04.386Z,48.50
2024-01-04T10:01:37.996Z,48.27
2024-01-04T10:04:11.949Z,48.53
2024-01-04T10:06:43.247Z,49.17
2024-01-04T10:09:22.637Z,48.17
2024-01-04T10:12:04.378Z,49.83
2024-01-04T10:14:35.526Z,48.33
2024-01-04T10:17:06.224Z,48.53
2024-01-04T10:19:37.484Z,50.00
2024-01-04T10:22:10.277Z,51.27
2024-01-04T10:24:43.178Z,50.50
2024-01-04T10:27:18.510Z,59.10
2024-01-04T10:29:53.060Z,51.80
2024-01-04T10:32:23.295Z,50.53
2024-01-04T10:34:52.804Z,49.13
2024-01-04T10:37:23.927Z,51.17
2024-01-04T10:39:59.535Z,49.13
2024-01-04T10:42:31.046Z,55.47
2024-01-04T10:45:02.864Z,52.77
2024-01-04T10:47:32.712Z,51.23
2024-01-04T10:50:05.043Z,52.97
2024-01-04T10:52:35.665Z,48.37
2024-01-04T10:55:07.626Z,49.20
2024-01-04T10:57:40.716Z,48.07
2024-01-04T11:00:13.050Z,46.73
2024-01-04T11:02:43.762Z,43.97
2024-01-04T11:05:14.679Z,45.07
2024-01-04T11:07:46.518Z,43.83
2024-01-04T11:10:17.755Z,43.50
2024-01-04T11:12:50.897Z,46.53
2024-01-04T11:15:21.920Z,42.63
2024-01-04T11:18:06.532Z,43.37
2024-01-04T11:20:52.461Z,45.07
2024-01-04T11:23:40.056Z,46.27
2024-01-04T11:26:29.129Z,47.43
2024-01-04T11:29:08.258Z,53.00
2024-01-04T11:31:46.042Z,57.90
2024-01-04T11:34:19.533Z,54.30
2024-01-04T11:36:50.705Z,55.27
2024-01-04T11:39:29.156Z,61.33
2024-01-04T11:41:58.869Z,62.27
2024-01-04T11:44:38.671Z,68.10
2024-01-04T11:47:15.776Z,63.00
2024-01-04T11:49:56.213Z,72.27
2024-01-04T11:52:32.686Z,76.07
2024-01-04T11:55:02.705Z,76.77
2024-01-04T11:57:33.692Z,70.57
2024-01-04T12:00:15.623Z,67.83
2024-01-04T12:02:45.782Z,73.20
2024-01-04T12:05:21.485Z,62.97
2024-01-04T12:07:51.227Z,65.60
2024-01-04T12:10:22.070Z,67.23
2024-01-04T12:12:51.766Z,64.27
2024-01-04T12:15:24.723Z,59.30
2024-01-04T12:17:55.199Z,59.93
2024-01-04T12:20:25.398Z,62.00
2024-01-04T12:22:54.978Z,58.60
2024-01-04T12:25:24.910Z,64.27
2024-01-04T12:27:54.945Z,58.47
2024-01-04T12:30:27.639Z,53.30
2024-01-04T12:32:59.213Z,50.23
2024-01-04T12:35:29.425Z,53.57
2024-01-04T12:38:02.970Z,52.37
2024-01-04T12:40:42.831Z,50.57
2024-01-04T12:43:14.492Z,49.60
2024-01-04T12:45:45.541Z,48.20
2024-01-04T12:48:15.902Z,47.80
2024-01-04T12:50:46.199Z,51.47
2024-01-04T12:53:16.801Z,47.77
2024-01-04T12:55:47.960Z,45.77
2024-01-04T12:58:17.967Z,40.90
2024-01-04T13:00:50.517Z,41.50
2024-01-04T13:03:20.318Z,42.03
2024-01-04T13:05:50.339Z,40.97
2024-01-04T13:08:20.590Z,43.87
2024-01-04T13:10:58.842Z,42.50
2024-01-04T13:13:32.971Z,39.87
2024-01-04T13:16:05.088Z,40.63
2024-01-04T13:18:35.251Z,44.33
2024-01-04T13:21:05.622Z,39.07
2024-01-04T13:23:36.044Z,41.23
2024-01-04T13:26:06.525Z,45.23
2024-01-04T13:28:36.388Z,39.43
2024-01-04T13:31:08.899Z,42.77
2024-01-04T13:33:40.323Z,38.73
2024-01-04T13:36:10.550Z,39.93
2024-01-04T13:38:41.249Z,36.80
2024-01-04T13:41:11.094Z,37.43
2024-01-04T13:43:41.311Z,39.57
2024-01-04T13:46:13.672Z,38.23
2024-01-04T13:48:44.683Z,41.07
2024-01-04T13:51:14.968Z,39.27
2024-01-04T13:53:45.325Z,37.23
2024-01-04T13:56:17.428Z,39.05
2024-01-04T13:58:47.144Z,40.10
2024-01-04T14:01:19.538Z,36.83
2024-01-04T14:03:49.832Z,39.42
2024-01-04T14:06:19.856Z,40.90
2024-01-04T14:08:55.970Z,39.42
2024-01-04T14:11:25.925Z,43.08
2024-01-04T14:13:55.736Z,42.47
2024-01-04T14:16:27.194Z,41.22
2024-01-04T14:18:57.659Z,41.78
2024-01-04T14:21:27.717Z,43.10
2024-01-04T14:23:57.728Z,40.25
2024-01-04T14:26:29.191Z,39.33
2024-01-04T14:29:00.551Z,39.35
2024-01-04T14:31:31.648Z,40.73
2024-01-04T14:34:02.969Z,38.67
2024-01-04T14:36:35.112Z,36.83
2024-01-04T14:39:06.321Z,40.63
2024-01-04T14:41:36.992Z,37.07
2024-01-04T14:44:07.006Z,39.47
2024-01-04T14:46:38.254Z,41.57
2024-01-04T14:49:11.226Z,44.47
2024-01-04T14:51:40.927Z,49.13
2024-01-04T14:54:10.805Z,41.77
2024-01-04T14:56:40.458Z,41.43
2024-01-04T14:59:10.467Z,42.07
2024-01-04T15:01:42.282Z,43.17
2024-01-04T15:04:13.167Z,41.67
2024-01-04T15:06:42.890Z,45.70
2024-01-04T15:09:17.274Z,42.73
2024-01-04T15:11:47.378Z,45.90
2024-01-04T15:14:18.965Z,48.23
2024-01-04T15:16:51.159Z,48.63
2024-01-04T15:19:22.992Z,47.37
2024-01-04T15:21:53.537Z,47.57
2024-01-04T15:24:26.473Z,43.87
2024-01-04T15:26:57.853Z,47.07
2024-01-04T15:29:29.396Z,48.93
2024-01-04T15:32:02.198Z,51.13
2024-01-04T15:34:38.277Z,47.60
2024-01-04T15:37:11.607Z,50.67
2024-01-04T15:39:43.522Z,48.80
2024-01-04T15:42:13.664Z,45.07
2024-01-04T15:44:43.527Z,44.90
2024-01-04T15:47:15.306Z,42.57
2024-01-04T15:49:45.255Z,47.03
2024-01-04T15:52:15.529Z,52.10
2024-01-04T15:54:45.371Z,54.47
2024-01-04T15:57:15.047Z,53.60
2024-01-04T15:59:45.430Z,52.00
2024-01-04T16:02:16.877Z,55.00
2024-01-04T16:04:46.949Z,53.93
2024-01-04T16:07:16.805Z,52.83
2024-01-04T16:09:46.582Z,52.10
2024-01-04T16:12:16.480Z,57.37
2024-01-04T16:14:48.309Z,56.57
2024-01-04T16:17:20.516Z,54.47
2024-01-04T16:19:50.796Z,52.60
2024-01-04T16:22:20.278Z,50.53
2024-01-04T16:24:50.679Z,52.43
2024-01-04T16:27:21.933Z,54.63
2024-01-04T16:29:52.355Z,57.40
2024-01-04T16:32:23.486Z,61.13
2024-01-04T16:34:54.154Z,58.27
2024-01-04T16:37:24.202Z,62.77
2024-01-04T16:39:55.208Z,56.17
2024-01-04T16:42:25.106Z,55.37
2024-01-04T16:44:55.457Z,54.40
2024-01-04T16:47:26.551Z,54.63
2024-01-04T16:49:58.036Z,59.43
2024-01-04T16:52:28.123Z,74.73
2024-01-04T16:54:58.447Z,66.67
2024-01-04T16:57:29.745Z,72.10
2024-01-04T16:59:59.693Z,69.93
2024-01-04T17:02:31.273Z,74.60
2024-01-04T17:05:01.629Z,75.83
2024-01-04T17:07:31.296Z,71.10
2024-01-04T17:10:01.511Z,77.17
2024-01-04T17:12:31.481Z,69.97
2024-01-04T17:15:01.659Z,67.07
2024-01-04T17:17:33.567Z,76.13
2024-01-04T17:20:03.876Z,80.40
2024-01-04T17:22:34.272Z,74.53
2024-01-04T17:25:05.104Z,75.00
2024-01-04T17:27:35.152Z,84.50
2024-01-04T17:30:05.468Z,91.53
2024-01-04T17:32:37.782Z,90.47
2024-01-04T17:40:23.714Z,95.00
2024-01-04T17:43:00.517Z,81.17
2024-01-04T17:45:30.399Z,81.20
2024-01-04T17:48:01.620Z,79.83
2024-01-04T17:50:31.379Z,77.30
2024-01-04T17:53:01.508Z,76.93
2024-01-04T17:55:32.323Z,85.03
2024-01-04T17:58:02.043Z,83.97
2024-01-04T18:00:31.568Z,75.97
2024-01-04T18:03:02.969Z,80.97
2024-01-04T18:05:33.050Z,79.33
2024-01-04T18:08:03.039Z,83.47
2024-01-04T18:10:33.557Z,78.80
2024-01-04T18:13:04.429Z,81.90
2024-01-04T18:15:34.901Z,76.50
2024-01-04T18:18:07.387Z,86.83
2024-01-04T18:20:39.463Z,82.57
2024-01-04T18:23:09.483Z,81.63
2024-01-04T18:25:40.385Z,78.27
2024-01-04T18:28:10.639Z,87.60
2024-01-04T18:30:40.496Z,84.27
2024-01-04T18:33:12.161Z,89.47
2024-01-04T18:35:44.815Z,92.77
2024-01-04T18:38:14.628Z,90.47
2024-01-04T18:40:45.023Z,77.57
2024-01-04T18:43:14.830Z,78.33
2024-01-04T18:45:44.538Z,96.90
2024-01-04T18:48:15.877Z,101.77
2024-01-04T18:50:46.039Z,116.87
2024-01-04T18:53:16.745Z,91.60
2024-01-04T18:55:46.863Z,94.87
2024-01-04T18:58:16.951Z,103.53
2024-01-04T19:00:46.470Z,109.67
2024-01-04T19:03:18.274Z,102.73
2024-01-04T19:05:48.465Z,98.57
2024-01-04T19:08:18.967Z,95.97
2024-01-04T19:10:48.911Z,98.50
2024-01-04T19:13:18.867Z,100.93
2024-01-04T19:15:57.057Z,90.00
2024-01-04T19:18:32.065Z,95.33
2024-01-04T19:21:02.418Z,93.80
2024-01-04T19:23:32.509Z,87.73
2024-01-04T19:26:02.618Z,85.57
2024-01-04T19:28:32.898Z,87.07
2024-01-04T19:31:02.716Z,87.07
2024-01-04T19:33:35.256Z,128.87
2024-01-04T19:36:06.109Z,104.17
2024-01-04T19:38:35.926Z,109.47
2024-01-04T19:41:05.484Z,109.53
2024-01-04T19:43:36.329Z,99.27
2024-01-04T19:46:10.966Z,100.13
2024-01-04T19:48:44.377Z,104.97
2024-01-04T19:51:14.484Z,102.50
2024-01-04T19:53:45.341Z,106.47
2024-01-04T19:56:16.954Z,127.30
2024-01-04T19:58:47.932Z,118.20
2024-01-04T20:01:19.701Z,126.03
2024-01-04T20:03:52.613Z,110.10
2024-01-04T20:06:24.008Z,97.30
2024-01-04T20:08:54.123Z,91.53
2024-01-04T20:11:25.653Z,93.77
2024-01-04T20:13:56.607Z,86.93
2024-01-04T20:16:27.365Z,76.60
2024-01-04T20:18:59.271Z,86.07
2024-01-04T20:21:30.001Z,94.27
2024-01-04T20:23:59.874Z,97.20
2024-01-04T20:26:29.957Z,95.10
2024-01-04T20:29:02.920Z,92.50
2024-01-04T20:31:35.154Z,88.50
2024-01-04T20:34:06.800Z,99.83
2024-01-04T20:36:37.374Z,94.47
2024-01-04T20:39:08.188Z,89.97
2024-01-04T20:41:39.185Z,95.27
2024-01-04T20:44:09.386Z,82.80
2024-01-04T20:46:40.982Z,84.50
2024-01-04T20:49:12.848Z,81.63
2024-01-04T20:51:47.712Z,81.33
2024-01-04T20:54:20.359Z,85.33
2024-01-04T20:56:53.092Z,79.47
2024-01-04T20:59:26.186Z,74.77
2024-01-04T21:01:56.630Z,85.27
2024-01-04T21:04:31.193Z,85.17
2024-01-04T21:07:01.897Z,78.53
2024-01-04T21:09:33.007Z,74.60
2024-01-04T21:12:05.706Z,75.43
2024-01-04T21:14:36.235Z,65.80
2024-01-04T21:17:06.047Z,67.03
2024-01-04T21:19:38.080Z,70.73
2024-01-04T21:22:08.843Z,62.47
2024-01-04T21:24:38.787Z,68.13
2024-01-04T21:27:08.713Z,70.50
2024-01-04T21:29:38.906Z,63.03
2024-01-04T21:32:09.007Z,67.27
2024-01-04T21:34:40.575Z,64.90
2024-01-04T21:37:10.574Z,63.57
2024-01-04T21:39:41.718Z,67.37
2024-01-04T21:42:13.912Z,67.73
2024-01-04T21:44:43.682Z,73.67
2024-01-04T21:47:13.603Z,70.67
2024-01-04T21:49:45.625Z,67.53
2024-01-04T21:52:15.773Z,65.27
2024-01-04T21:54:48.210Z,66.73
2024-01-04T21:57:19.679Z,68.33
2024-01-04T21:59:49.353Z,62.90
2024-01-04T22:02:21.204Z,65.13
2024-01-04T22:04:52.961Z,58.97
2024-01-04T22:07:23.344Z,66.07
2024-01-04T22:09:53.161Z,59.30
2024-01-04T22:12:22.694Z,62.57
2024-01-04T22:14:52.647Z,63.17
2024-01-04T22:17:24.331Z,65.87
2024-01-04T22:19:55.568Z,93.60
2024-01-04T22:22:25.919Z,75.73
2024-01-04T22:24:56.444Z,73.87
2024-01-04T22:27:26.385Z,78.27
2024-01-04T22:29:57.334Z,68.67
2024-01-04T22:32:27.519Z,64.50
2024-01-04T22:35:02.171Z,62.53
2024-01-04T22:37:32.887Z,59.13
2024-01-04T22:40:02.565Z,57.83
2024-01-04T22:42:32.297Z,62.57
2024-01-04T22:45:02.407Z,65.00
2024-01-04T22:47:32.561Z,69.87
2024-01-04T22:50:04.892Z,73.90
2024-01-04T22:52:35.115Z,76.23
2024-01-04T22:55:05.553Z,72.53
2024-01-04T22:57:35.379Z,72.70
2024-01-04T23:00:05.741Z,77.13
2024-01-04T23:02:36.114Z,72.97
2024-01-04T23:05:07.807Z,84.97
2024-01-04T23:07:38.543Z,72.40
2024-01-04T23:10:08.714Z,61.93
2024-01-04T23:12:38.448Z,65.03
2024-01-04T23:15:08.870Z,55.70
2024-01-04T23:17:39.212Z,58.80
2024-01-04T23:20:11.662Z,56.17
2024-01-04T23:22:41.781Z,55.00
2024-01-04T23:25:13.533Z,57.67
2024-01-04T23:27:43.064Z,55.60
2024-01-04T23:30:14.139Z,54.43
2024-01-04T23:32:44.325Z,52.20
2024-01-04T23:35:15.939Z,55.77
2024-01-04T23:37:46.176Z,51.87
2024-01-04T23:40:15.996Z,53.33
2024-01-04T23:42:45.680Z,53.60
2024-01-04T23:45:15.791Z,54.00
2024-01-04T23:47:46.149Z,53.93
2024-01-04T23:50:17.995Z,73.83
2024-01-04T23:52:47.907Z,63.97
2024-01-04T23:55:18.026Z,58.27
2024-01-04T23:57:47.649Z,55.03
